Aérodrome :
LOGIN :

S'inscrire | Disclaimer

   EN    FR    IT 

 










Légende :    VFR   VFR Marginal   IFR   IFR Intensif   IFR Très Intensif
Visi : 
Plafond : 
>= 8 km
>= 3000ft
5 à 8 km
1000 à 3000 ft
1500m à 5 km
500 à 1000 ft
800 à 1500m
200 à 500 ft
< 800m
< 200 ft
Symboles :   Orages  Brouillard  Fortes neiges  Fortes précipitations  Vent > 20 kt
SIGMETs :   Divers  Orages  Givrage  Turbulence  Onde Orograph.  Cendres Volcan.






- Altitude de l'aérodrome : 776 ft
- Code IATA : RMS


ETAR - Ramstein Air Base

DERNIER METAR :
  • 201011Z 23008G14KT 9999 SCT018 BKN048 08/05 A3013 RMK AO2A SLP214 FZRANO $

METARs EXPIRÉS :
  • 200956Z 21010G15KT 9999 BKN015 BKN020 BKN047 08/06 A3013 RMK AO2A SLP214 T00750055 FZRANO $
  • 200926Z 23008G15KT 9999 BKN015 OVC047 07/06 A3014 RMK AO2A SLP217 FZRANO $
  • 200911Z 23010G16KT 9999 BKN014 OVC047 07/06 A3014 RMK AO2A SLP217 FZRANO $
  • 200856Z 21009KT 9999 OVC012 07/06 A3014 RMK AO2A SLP218 60000 T00710056 55001 FZRANO $
  • 200841Z 22009G15KT 9999 OVC012 07/06 A3014 RMK AO2A SLP218 FZRANO $
  • 200826Z 23011KT 9999 OVC011 07/06 A3014 RMK AO2A SLP218 FZRANO $
  • 200811Z 24009G15KT 9999 OVC010 07/06 A3015 RMK AO2A SLP220 FZRANO $
  • 200756Z AUTO 23008KT 9999 OVC009 06/06 A3015 RMK AO2 SLP221 T00630056 FZRANO $
  • 200726Z AUTO 22007KT 9999 OVC008 06/06 A3015 RMK AO2 SLP221 FZRANO $

TAF TAF ETAR
Valide du 20 à 10h jusqu'au 21 à 16h UTC


201000Z 2010/2116 22010G20KT 9999 BKN015 620406 510005 QNH3010INS
BECMG 2012/2013 23012G20KT 9999 SCT020 BKN030 620406 510005 QNH2999INS
BECMG 2020/2021 22015G25KT 9000 -SHRA BKN020 610406 520005 QNH3002INS
BECMG 2100/2101 27010G20KT 9999 NSW SCT030 510005 QNH3020INS
BECMG 2104/2105 26009KT 9999 BKN015 QNH3029INS
BECMG 2109/2110 25012KT 9999 SCT020 QNH3036INS TX08/2012Z TN02/2106Z



MET'MAP, la Météo Aéronautique d'un coup d'oeil ! - Copyright ORBIFLY Décembre 2007 - Disclaimer

ORBIFLY MET'MAP TEAM :

Programmation & Développement : Alexandra Zaïnal
Sur une idée originale de : Baudouin d'Aumeries
Assistance à la programmation : Marc-Olivier Méhu
Soutien technique & logistique : Manuel Goepfert

Contact : metmap@orbifly.com




SOURCES & CREDITS :

   NOAA